Peleus — V2FV2 — position and weather

sailwx.info

Track history (hours):
 
Tides and Currents Weather Stations Pressure Air Temp Water Temp Dewpoint Dewpoint Depression Visibility Wind Speed Wind Dir Waves Ship Positions

Peleus

Last reported at 2017-Mar-27 06:33 UTC. Time now 2017-Mar-29 05:27 UTC.
Position N 48°05' W 006°27'.

Length 88 m; draft 5.5 m.

Type: Cargo ship. MMSI: 305810000.

Date/timePositionNaut miles runAvg speedWind from/ knotsBaromVisibWave heightAir tempDewpointWater temp
2017-Mar-27 06:33N 48°05' W 006°27'162 8.1
2017-Mar-26 10:33N 49°50' W 003°20'11 9.9
2017-Mar-26 09:28N 49°55' W 003°05'109 9.1
2017-Mar-25 21:33N 50°27' W 000°22'9 8.6
2017-Mar-25 20:33N 50°29' W 000°09'8 7.9
2017-Mar-25 19:33N 50°32' E 000°02'7 7.5
2017-Mar-25 18:33N 50°34' E 000°13'8 8.2
2017-Mar-25 17:33N 50°37' E 000°26'10 9.5
2017-Mar-25 16:33N 50°41' E 000°39'1110.6
2017-Mar-25 15:33N 50°47' E 000°53'1110.8
2017-Mar-25 14:30N 50°53' E 001°08'1010.3
2017-Mar-25 13:33N 50°60' E 001°20'9 9.2
2017-Mar-25 12:33N 51°06' E 001°31'8 7.7
2017-Mar-25 11:33N 51°11' E 001°40'7 7.5
2017-Mar-25 10:33N 51°16' E 001°48'8 8.3
2017-Mar-25 09:33N 51°23' E 001°55'9 9.3
2017-Mar-25 08:33N 51°31' E 002°04'1010.2
2017-Mar-25 07:33N 51°38' E 002°15'1210.8
2017-Mar-25 06:29N 51°47' E 002°28'2210.3
2017-Mar-25 04:22N 52°01' E 002°54'26 9.2
2017-Mar-25 01:32N 52°03' E 003°37'8 8.5
2017-Mar-25 00:33N 52°03' E 003°50'9 8.6
2017-Mar-24 23:33N 51°59' E 004°03'1010.1
2017-Mar-24 22:33N 51°54' E 004°17'3 1.3
2017-Mar-24 20:32N 51°54' E 004°21'0 0.0
2017-Mar-24 19:33N 51°54' E 004°21'0 0.0
2017-Mar-24 18:32N 51°54' E 004°21'0 0.0
2017-Mar-24 17:33N 51°54' E 004°21'0 0.0
2017-Mar-24 16:33N 51°54' E 004°21'0 0.0
2017-Mar-24 15:32N 51°54' E 004°21'0 0.0
2017-Mar-24 14:33N 51°54' E 004°21'0 0.0
2017-Mar-24 13:33N 51°54' E 004°21'0 0.0
2017-Mar-24 12:32N 51°54' E 004°21'0 0.0
2017-Mar-24 11:32N 51°54' E 004°21'0 0.0
2017-Mar-24 10:32N 51°54' E 004°21'0 0.0
2017-Mar-24 09:32N 51°54' E 004°21'0 0.0
2017-Mar-24 08:33N 51°54' E 004°21'0 0.0
2017-Mar-24 07:32N 51°54' E 004°21'0 0.0
2017-Mar-24 06:33N 51°54' E 004°21'0 0.0
2017-Mar-24 05:33N 51°54' E 004°21'0 0.0
2017-Mar-24 04:32N 51°54' E 004°21'0 0.0
2017-Mar-24 03:33N 51°54' E 004°21'0 0.0
2017-Mar-24 02:32N 51°54' E 004°21'0 0.0
2017-Mar-24 01:33N 51°54' E 004°21'0 0.0
2017-Mar-24 00:32N 51°54' E 004°21'0 0.0
2017-Mar-23 23:33N 51°54' E 004°21'0 0.0
2017-Mar-23 22:32N 51°54' E 004°21'0 0.0
2017-Mar-23 21:32N 51°54' E 004°21'0 0.0
2017-Mar-23 20:32N 51°54' E 004°21'0 0.0
2017-Mar-23 19:32N 51°54' E 004°21'0 0.0
2017-Mar-23 18:32N 51°54' E 004°21'0 0.0
2017-Mar-23 17:27N 51°54' E 004°21'0 0.0
2017-Mar-23 16:33N 51°54' E 004°21'0 0.0
2017-Mar-23 15:32N 51°54' E 004°21'0 0.0
2017-Mar-23 14:33N 51°54' E 004°21'0 0.0
2017-Mar-23 13:29N 51°54' E 004°21'0 0.0
2017-Mar-23 12:32N 51°54' E 004°21'0 0.0
2017-Mar-23 11:33N 51°54' E 004°21'0 0.0
2017-Mar-23 10:33N 51°54' E 004°21'0 0.0
2017-Mar-23 09:32N 51°54' E 004°21'0 0.0
2017-Mar-23 08:33N 51°54' E 004°21'0 0.0
2017-Mar-23 07:33N 51°54' E 004°21'0 0.0
2017-Mar-23 06:33N 51°54' E 004°21'0 0.0
2017-Mar-23 05:32N 51°54' E 004°21'0 0.0
2017-Mar-23 04:33N 51°54' E 004°21'0 0.0
2017-Mar-23 03:33N 51°54' E 004°21'0 0.0
2017-Mar-23 02:32N 51°54' E 004°21'0 0.0
2017-Mar-23 01:33N 51°54' E 004°21'0 0.0
2017-Mar-23 00:32N 51°54' E 004°21'0 0.0
2017-Mar-22 23:33N 51°54' E 004°21'0 0.0
2017-Mar-22 22:33N 51°54' E 004°21'0 0.0
2017-Mar-22 21:32N 51°54' E 004°21'0 0.0
2017-Mar-22 20:33N 51°54' E 004°21'0 0.0
2017-Mar-22 19:33N 51°54' E 004°21'0 0.0
2017-Mar-22 18:32N 51°54' E 004°21'0 0.0
2017-Mar-22 17:33N 51°54' E 004°21'0 0.0
2017-Mar-22 16:33N 51°54' E 004°21'0 0.0
2017-Mar-22 15:32N 51°54' E 004°21'0 0.0
2017-Mar-22 14:32N 51°54' E 004°21'0 0.0
2017-Mar-22 13:32N 51°54' E 004°21'0 0.0
2017-Mar-22 12:32N 51°54' E 004°21'0 0.0
2017-Mar-22 11:32N 51°54' E 004°21'0 0.0
2017-Mar-22 10:32N 51°54' E 004°21'0 0.0
2017-Mar-22 09:32N 51°54' E 004°21'0 0.0
2017-Mar-22 08:33N 51°54' E 004°21'0 0.0
2017-Mar-22 07:32N 51°54' E 004°21'0 0.0
2017-Mar-22 06:33N 51°54' E 004°21'0 0.0
2017-Mar-22 05:33N 51°54' E 004°21'0 0.0
2017-Mar-22 04:33N 51°54' E 004°21'0 0.0
2017-Mar-22 03:32N 51°54' E 004°21'0 0.0
2017-Mar-22 02:33N 51°54' E 004°21'0 0.0
2017-Mar-22 01:30N 51°54' E 004°21'0 0.0
2017-Mar-22 00:33N 51°54' E 004°21'0 0.0
2017-Mar-21 23:32N 51°54' E 004°21'0 0.0
2017-Mar-21 22:32N 51°54' E 004°21'0 0.0
2017-Mar-21 21:33N 51°54' E 004°21'0 0.0
2017-Mar-21 20:32N 51°54' E 004°21'0 0.0
2017-Mar-21 19:32N 51°54' E 004°21'0 0.0
2017-Mar-21 18:33N 51°54' E 004°21'0 0.0
2017-Mar-21 17:32N 51°54' E 004°21'0 0.0
2017-Mar-21 16:32N 51°54' E 004°21'3 3.2
2017-Mar-21 15:32N 51°53' E 004°16'0 0.0
2017-Mar-21 14:32N 51°53' E 004°16'0 0.0
2017-Mar-21 13:32N 51°53' E 004°16'0 0.0
2017-Mar-21 12:31N 51°53' E 004°16'0 0.0
2017-Mar-21 11:31N 51°53' E 004°16'0 0.0
2017-Mar-21 10:26N 51°53' E 004°16'0 0.0
2017-Mar-21 09:32N 51°53' E 004°16'0 0.0
2017-Mar-21 08:32N 51°53' E 004°16'0 0.0
2017-Mar-21 07:32N 51°53' E 004°16'0 0.0
2017-Mar-21 06:32N 51°53' E 004°16'0 0.0
2017-Mar-21 05:31N 51°53' E 004°16'0 0.0
2017-Mar-21 04:32N 51°53' E 004°16'0 0.0
2017-Mar-21 03:32N 51°53' E 004°16'0 0.0
2017-Mar-21 02:32N 51°53' E 004°16'0 0.0
2017-Mar-21 01:31N 51°53' E 004°16'0 0.0
2017-Mar-21 00:32N 51°53' E 004°16'0 0.0
2017-Mar-20 23:32N 51°53' E 004°16'0 0.0
2017-Mar-20 22:32N 51°53' E 004°16'0 0.0
2017-Mar-20 21:32N 51°53' E 004°16'0 0.0
2017-Mar-20 20:32N 51°53' E 004°16'0 0.0
2017-Mar-20 19:32N 51°53' E 004°16'0 0.0
2017-Mar-20 18:32N 51°53' E 004°16'0 0.0
2017-Mar-20 17:31N 51°53' E 004°16'0 0.0
2017-Mar-20 16:32N 51°53' E 004°16'0 0.0
2017-Mar-20 15:31N 51°53' E 004°16'0 0.0
2017-Mar-20 14:32N 51°53' E 004°16'0 0.0
2017-Mar-20 13:31N 51°53' E 004°16'0 0.0
2017-Mar-20 12:32N 51°53' E 004°16'0 0.0
2017-Mar-20 11:32N 51°53' E 004°16'0 0.0
2017-Mar-20 10:29N 51°53' E 004°16'0 0.0
2017-Mar-20 09:32N 51°53' E 004°16'0 0.0
2017-Mar-20 08:32N 51°53' E 004°16'0 0.0
2017-Mar-20 07:32N 51°53' E 004°16'0 0.0
2017-Mar-20 06:32N 51°53' E 004°16'0 0.0
2017-Mar-20 05:32N 51°53' E 004°16'0 0.0
2017-Mar-20 04:31N 51°53' E 004°16'0 0.0
2017-Mar-20 03:32N 51°53' E 004°16'0 0.0
2017-Mar-20 02:32N 51°53' E 004°16'0 0.0
2017-Mar-20 01:32N 51°53' E 004°16'0 0.0
2017-Mar-20 00:32N 51°53' E 004°16'0 0.0
2017-Mar-19 23:29N 51°53' E 004°16'0 0.0
2017-Mar-19 22:32N 51°53' E 004°16'0 0.0
2017-Mar-19 21:32N 51°53' E 004°16'0 0.0
2017-Mar-19 20:32N 51°53' E 004°16'0 0.0
2017-Mar-19 19:31N 51°53' E 004°16'0 0.0
2017-Mar-19 18:31N 51°53' E 004°16'0 0.0
2017-Mar-19 17:32N 51°53' E 004°16'0 0.0
2017-Mar-19 16:32N 51°53' E 004°16'0 0.0
2017-Mar-19 15:32N 51°53' E 004°16'0 0.0
2017-Mar-19 14:32N 51°53' E 004°16'0 0.0
2017-Mar-19 13:32N 51°53' E 004°16'0 0.0
2017-Mar-19 12:32N 51°53' E 004°16'0 0.0
2017-Mar-19 11:31N 51°53' E 004°16'0 0.0
2017-Mar-19 10:32N 51°53' E 004°16'0 0.0
2017-Mar-19 09:32N 51°53' E 004°16'0 0.0
2017-Mar-19 08:32N 51°53' E 004°16'0 0.0
2017-Mar-19 07:31N 51°53' E 004°16'0 0.0
2017-Mar-19 06:31N 51°53' E 004°16'0 0.0
2017-Mar-19 05:32N 51°53' E 004°16'0 0.0
2017-Mar-19 04:32N 51°53' E 004°16'0 0.0
2017-Mar-19 03:32N 51°53' E 004°16'0 0.0
2017-Mar-19 02:32N 51°53' E 004°16'0 0.0
2017-Mar-19 01:32N 51°53' E 004°16'0 0.0
2017-Mar-19 00:31N 51°53' E 004°16'0 0.0
2017-Mar-18 23:32N 51°53' E 004°16'0 0.0
2017-Mar-18 22:31N 51°53' E 004°16'0 0.0
2017-Mar-18 21:32N 51°53' E 004°16'0 0.0
2017-Mar-18 20:32N 51°53' E 004°16'0 0.0
2017-Mar-18 19:32N 51°53' E 004°16'0 0.0
2017-Mar-18 18:28N 51°53' E 004°16'0 0.0
2017-Mar-18 17:32N 51°53' E 004°16'0 0.0
2017-Mar-18 16:32N 51°53' E 004°16'0 0.0
2017-Mar-18 15:32N 51°53' E 004°16'0 0.0
2017-Mar-18 14:29N 51°53' E 004°16'0 0.0
2017-Mar-18 13:32N 51°53' E 004°16'0 0.0
2017-Mar-18 12:26N 51°53' E 004°16'0 0.0
2017-Mar-18 11:29N 51°53' E 004°16'0 0.0
2017-Mar-18 10:32N 51°53' E 004°16'0 0.0
2017-Mar-18 09:32N 51°53' E 004°16'0 0.0
2017-Mar-18 08:28N 51°53' E 004°16'0 0.0
2017-Mar-18 07:32N 51°53' E 004°16'0 0.0
2017-Mar-18 06:32N 51°53' E 004°16'0 0.0
2017-Mar-18 05:31N 51°53' E 004°16'0 0.0
2017-Mar-18 04:31N 51°53' E 004°16'0 0.0
2017-Mar-18 03:32N 51°53' E 004°16'0 0.0
2017-Mar-18 02:32N 51°53' E 004°16'0 0.0
2017-Mar-18 01:32N 51°53' E 004°16'0 0.0
2017-Mar-18 00:32N 51°53' E 004°16'0 0.0
2017-Mar-17 23:32N 51°53' E 004°16'0 0.0
2017-Mar-17 22:32N 51°53' E 004°16'0 0.0
2017-Mar-17 21:32N 51°53' E 004°16'0 0.0
2017-Mar-17 20:32N 51°53' E 004°16'0 0.0
2017-Mar-17 19:32N 51°53' E 004°16'0 0.0
2017-Mar-17 18:32N 51°53' E 004°16'0 0.0
2017-Mar-17 17:32N 51°53' E 004°16'0 0.1
2017-Mar-17 16:33N 51°53' E 004°16'5 5.2
2017-Mar-17 15:33N 51°57' E 004°10'9 8.8
2017-Mar-17 14:33N 52°00' E 003°57'9 9.0
2017-Mar-17 13:33N 51°59' E 003°43'9 8.9
2017-Mar-17 12:33N 51°56' E 003°29'45 8.9
2017-Mar-17 07:32N 51°36' E 002°24'  
Track history (hours):
 
Tides and Currents Weather Stations Pressure Air Temp Water Temp Dewpoint Dewpoint Depression Visibility Wind Speed Wind Dir Waves Ship Positions

Peleus

Last reported at 2017-Mar-27 06:33 UTC. Time now 2017-Mar-29 05:27 UTC.
Position N 48°05' W 006°27'.

Length 88 m; draft 5.5 m.

Type: Cargo ship. MMSI: 305810000.

Date/timePositionNaut miles runAvg speedWind from/ knotsBaromVisibWave heightAir tempDewpointWater temp
2017-Mar-27 06:33N 48°05' W 006°27'162 8.1
2017-Mar-26 10:33N 49°50' W 003°20'11 9.9
2017-Mar-26 09:28N 49°55' W 003°05'109 9.1
2017-Mar-25 21:33N 50°27' W 000°22'9 8.6
2017-Mar-25 20:33N 50°29' W 000°09'8 7.9
2017-Mar-25 19:33N 50°32' E 000°02'7 7.5
2017-Mar-25 18:33N 50°34' E 000°13'8 8.2
2017-Mar-25 17:33N 50°37' E 000°26'10 9.5
2017-Mar-25 16:33N 50°41' E 000°39'1110.6
2017-Mar-25 15:33N 50°47' E 000°53'1110.8
2017-Mar-25 14:30N 50°53' E 001°08'1010.3
2017-Mar-25 13:33N 50°60' E 001°20'9 9.2
2017-Mar-25 12:33N 51°06' E 001°31'8 7.7
2017-Mar-25 11:33N 51°11' E 001°40'7 7.5
2017-Mar-25 10:33N 51°16' E 001°48'8 8.3
2017-Mar-25 09:33N 51°23' E 001°55'9 9.3
2017-Mar-25 08:33N 51°31' E 002°04'1010.2
2017-Mar-25 07:33N 51°38' E 002°15'1210.8
2017-Mar-25 06:29N 51°47' E 002°28'2210.3
2017-Mar-25 04:22N 52°01' E 002°54'26 9.2
2017-Mar-25 01:32N 52°03' E 003°37'8 8.5
2017-Mar-25 00:33N 52°03' E 003°50'9 8.6
2017-Mar-24 23:33N 51°59' E 004°03'1010.1
2017-Mar-24 22:33N 51°54' E 004°17'3 1.3
2017-Mar-24 20:32N 51°54' E 004°21'0 0.0
2017-Mar-24 19:33N 51°54' E 004°21'0 0.0
2017-Mar-24 18:32N 51°54' E 004°21'0 0.0
2017-Mar-24 17:33N 51°54' E 004°21'0 0.0
2017-Mar-24 16:33N 51°54' E 004°21'0 0.0
2017-Mar-24 15:32N 51°54' E 004°21'0 0.0
2017-Mar-24 14:33N 51°54' E 004°21'0 0.0
2017-Mar-24 13:33N 51°54' E 004°21'0 0.0
2017-Mar-24 12:32N 51°54' E 004°21'0 0.0
2017-Mar-24 11:32N 51°54' E 004°21'0 0.0
2017-Mar-24 10:32N 51°54' E 004°21'0 0.0
2017-Mar-24 09:32N 51°54' E 004°21'0 0.0
2017-Mar-24 08:33N 51°54' E 004°21'0 0.0
2017-Mar-24 07:32N 51°54' E 004°21'0 0.0
2017-Mar-24 06:33N 51°54' E 004°21'0 0.0
2017-Mar-24 05:33N 51°54' E 004°21'0 0.0
2017-Mar-24 04:32N 51°54' E 004°21'0 0.0
2017-Mar-24 03:33N 51°54' E 004°21'0 0.0
2017-Mar-24 02:32N 51°54' E 004°21'0 0.0
2017-Mar-24 01:33N 51°54' E 004°21'0 0.0
2017-Mar-24 00:32N 51°54' E 004°21'0 0.0
2017-Mar-23 23:33N 51°54' E 004°21'0 0.0
2017-Mar-23 22:32N 51°54' E 004°21'0 0.0
2017-Mar-23 21:32N 51°54' E 004°21'0 0.0
2017-Mar-23 20:32N 51°54' E 004°21'0 0.0
2017-Mar-23 19:32N 51°54' E 004°21'0 0.0
2017-Mar-23 18:32N 51°54' E 004°21'0 0.0
2017-Mar-23 17:27N 51°54' E 004°21'0 0.0
2017-Mar-23 16:33N 51°54' E 004°21'0 0.0
2017-Mar-23 15:32N 51°54' E 004°21'0 0.0
2017-Mar-23 14:33N 51°54' E 004°21'0 0.0
2017-Mar-23 13:29N 51°54' E 004°21'0 0.0
2017-Mar-23 12:32N 51°54' E 004°21'0 0.0
2017-Mar-23 11:33N 51°54' E 004°21'0 0.0
2017-Mar-23 10:33N 51°54' E 004°21'0 0.0
2017-Mar-23 09:32N 51°54' E 004°21'0 0.0
2017-Mar-23 08:33N 51°54' E 004°21'0 0.0
2017-Mar-23 07:33N 51°54' E 004°21'0 0.0
2017-Mar-23 06:33N 51°54' E 004°21'0 0.0
2017-Mar-23 05:32N 51°54' E 004°21'0 0.0
2017-Mar-23 04:33N 51°54' E 004°21'0 0.0
2017-Mar-23 03:33N 51°54' E 004°21'0 0.0
2017-Mar-23 02:32N 51°54' E 004°21'0 0.0
2017-Mar-23 01:33N 51°54' E 004°21'0 0.0
2017-Mar-23 00:32N 51°54' E 004°21'0 0.0
2017-Mar-22 23:33N 51°54' E 004°21'0 0.0
2017-Mar-22 22:33N 51°54' E 004°21'0 0.0
2017-Mar-22 21:32N 51°54' E 004°21'0 0.0
2017-Mar-22 20:33N 51°54' E 004°21'0 0.0
2017-Mar-22 19:33N 51°54' E 004°21'0 0.0
2017-Mar-22 18:32N 51°54' E 004°21'0 0.0
2017-Mar-22 17:33N 51°54' E 004°21'0 0.0
2017-Mar-22 16:33N 51°54' E 004°21'0 0.0
2017-Mar-22 15:32N 51°54' E 004°21'0 0.0
2017-Mar-22 14:32N 51°54' E 004°21'0 0.0
2017-Mar-22 13:32N 51°54' E 004°21'0 0.0
2017-Mar-22 12:32N 51°54' E 004°21'0 0.0
2017-Mar-22 11:32N 51°54' E 004°21'0 0.0
2017-Mar-22 10:32N 51°54' E 004°21'0 0.0
2017-Mar-22 09:32N 51°54' E 004°21'0 0.0
2017-Mar-22 08:33N 51°54' E 004°21'0 0.0
2017-Mar-22 07:32N 51°54' E 004°21'0 0.0
2017-Mar-22 06:33N 51°54' E 004°21'0 0.0
2017-Mar-22 05:33N 51°54' E 004°21'0 0.0
2017-Mar-22 04:33N 51°54' E 004°21'0 0.0
2017-Mar-22 03:32N 51°54' E 004°21'0 0.0
2017-Mar-22 02:33N 51°54' E 004°21'0 0.0
2017-Mar-22 01:30N 51°54' E 004°21'0 0.0
2017-Mar-22 00:33N 51°54' E 004°21'0 0.0
2017-Mar-21 23:32N 51°54' E 004°21'0 0.0
2017-Mar-21 22:32N 51°54' E 004°21'0 0.0
2017-Mar-21 21:33N 51°54' E 004°21'0 0.0
2017-Mar-21 20:32N 51°54' E 004°21'0 0.0
2017-Mar-21 19:32N 51°54' E 004°21'0 0.0
2017-Mar-21 18:33N 51°54' E 004°21'0 0.0
2017-Mar-21 17:32N 51°54' E 004°21'0 0.0
2017-Mar-21 16:32N 51°54' E 004°21'3 3.2
2017-Mar-21 15:32N 51°53' E 004°16'0 0.0
2017-Mar-21 14:32N 51°53' E 004°16'0 0.0
2017-Mar-21 13:32N 51°53' E 004°16'0 0.0
2017-Mar-21 12:31N 51°53' E 004°16'0 0.0
2017-Mar-21 11:31N 51°53' E 004°16'0 0.0
2017-Mar-21 10:26N 51°53' E 004°16'0 0.0
2017-Mar-21 09:32N 51°53' E 004°16'0 0.0
2017-Mar-21 08:32N 51°53' E 004°16'0 0.0
2017-Mar-21 07:32N 51°53' E 004°16'0 0.0
2017-Mar-21 06:32N 51°53' E 004°16'0 0.0
2017-Mar-21 05:31N 51°53' E 004°16'0 0.0
2017-Mar-21 04:32N 51°53' E 004°16'0 0.0
2017-Mar-21 03:32N 51°53' E 004°16'0 0.0
2017-Mar-21 02:32N 51°53' E 004°16'0 0.0
2017-Mar-21 01:31N 51°53' E 004°16'0 0.0
2017-Mar-21 00:32N 51°53' E 004°16'0 0.0
2017-Mar-20 23:32N 51°53' E 004°16'0 0.0
2017-Mar-20 22:32N 51°53' E 004°16'0 0.0
2017-Mar-20 21:32N 51°53' E 004°16'0 0.0
2017-Mar-20 20:32N 51°53' E 004°16'0 0.0
2017-Mar-20 19:32N 51°53' E 004°16'0 0.0
2017-Mar-20 18:32N 51°53' E 004°16'0 0.0
2017-Mar-20 17:31N 51°53' E 004°16'0 0.0
2017-Mar-20 16:32N 51°53' E 004°16'0 0.0
2017-Mar-20 15:31N 51°53' E 004°16'0 0.0
2017-Mar-20 14:32N 51°53' E 004°16'0 0.0
2017-Mar-20 13:31N 51°53' E 004°16'0 0.0
2017-Mar-20 12:32N 51°53' E 004°16'0 0.0
2017-Mar-20 11:32N 51°53' E 004°16'0 0.0
2017-Mar-20 10:29N 51°53' E 004°16'0 0.0
2017-Mar-20 09:32N 51°53' E 004°16'0 0.0
2017-Mar-20 08:32N 51°53' E 004°16'0 0.0
2017-Mar-20 07:32N 51°53' E 004°16'0 0.0
2017-Mar-20 06:32N 51°53' E 004°16'0 0.0
2017-Mar-20 05:32N 51°53' E 004°16'0 0.0
2017-Mar-20 04:31N 51°53' E 004°16'0 0.0
2017-Mar-20 03:32N 51°53' E 004°16'0 0.0
2017-Mar-20 02:32N 51°53' E 004°16'0 0.0
2017-Mar-20 01:32N 51°53' E 004°16'0 0.0
2017-Mar-20 00:32N 51°53' E 004°16'0 0.0
2017-Mar-19 23:29N 51°53' E 004°16'0 0.0
2017-Mar-19 22:32N 51°53' E 004°16'0 0.0
2017-Mar-19 21:32N 51°53' E 004°16'0 0.0
2017-Mar-19 20:32N 51°53' E 004°16'0 0.0
2017-Mar-19 19:31N 51°53' E 004°16'0 0.0
2017-Mar-19 18:31N 51°53' E 004°16'0 0.0
2017-Mar-19 17:32N 51°53' E 004°16'0 0.0
2017-Mar-19 16:32N 51°53' E 004°16'0 0.0
2017-Mar-19 15:32N 51°53' E 004°16'0 0.0
2017-Mar-19 14:32N 51°53' E 004°16'0 0.0
2017-Mar-19 13:32N 51°53' E 004°16'0 0.0
2017-Mar-19 12:32N 51°53' E 004°16'0 0.0
2017-Mar-19 11:31N 51°53' E 004°16'0 0.0
2017-Mar-19 10:32N 51°53' E 004°16'0 0.0
2017-Mar-19 09:32N 51°53' E 004°16'0 0.0
2017-Mar-19 08:32N 51°53' E 004°16'0 0.0
2017-Mar-19 07:31N 51°53' E 004°16'0 0.0
2017-Mar-19 06:31N 51°53' E 004°16'0 0.0
2017-Mar-19 05:32N 51°53' E 004°16'0 0.0
2017-Mar-19 04:32N 51°53' E 004°16'0 0.0
2017-Mar-19 03:32N 51°53' E 004°16'0 0.0
2017-Mar-19 02:32N 51°53' E 004°16'0 0.0
2017-Mar-19 01:32N 51°53' E 004°16'0 0.0
2017-Mar-19 00:31N 51°53' E 004°16'0 0.0
2017-Mar-18 23:32N 51°53' E 004°16'0 0.0
2017-Mar-18 22:31N 51°53' E 004°16'0 0.0
2017-Mar-18 21:32N 51°53' E 004°16'0 0.0
2017-Mar-18 20:32N 51°53' E 004°16'0 0.0
2017-Mar-18 19:32N 51°53' E 004°16'0 0.0
2017-Mar-18 18:28N 51°53' E 004°16'0 0.0
2017-Mar-18 17:32N 51°53' E 004°16'0 0.0
2017-Mar-18 16:32N 51°53' E 004°16'0 0.0
2017-Mar-18 15:32N 51°53' E 004°16'0 0.0
2017-Mar-18 14:29N 51°53' E 004°16'0 0.0
2017-Mar-18 13:32N 51°53' E 004°16'0 0.0
2017-Mar-18 12:26N 51°53' E 004°16'0 0.0
2017-Mar-18 11:29N 51°53' E 004°16'0 0.0
2017-Mar-18 10:32N 51°53' E 004°16'0 0.0
2017-Mar-18 09:32N 51°53' E 004°16'0 0.0
2017-Mar-18 08:28N 51°53' E 004°16'0 0.0
2017-Mar-18 07:32N 51°53' E 004°16'0 0.0
2017-Mar-18 06:32N 51°53' E 004°16'0 0.0
2017-Mar-18 05:31N 51°53' E 004°16'0 0.0
2017-Mar-18 04:31N 51°53' E 004°16'0 0.0
2017-Mar-18 03:32N 51°53' E 004°16'0 0.0
2017-Mar-18 02:32N 51°53' E 004°16'0 0.0
2017-Mar-18 01:32N 51°53' E 004°16'0 0.0
2017-Mar-18 00:32N 51°53' E 004°16'0 0.0
2017-Mar-17 23:32N 51°53' E 004°16'0 0.0
2017-Mar-17 22:32N 51°53' E 004°16'0 0.0
2017-Mar-17 21:32N 51°53' E 004°16'0 0.0
2017-Mar-17 20:32N 51°53' E 004°16'0 0.0
2017-Mar-17 19:32N 51°53' E 004°16'0 0.0
2017-Mar-17 18:32N 51°53' E 004°16'0 0.0
2017-Mar-17 17:32N 51°53' E 004°16'0 0.1
2017-Mar-17 16:33N 51°53' E 004°16'5 5.2
2017-Mar-17 15:33N 51°57' E 004°10'9 8.8
2017-Mar-17 14:33N 52°00' E 003°57'9 9.0
2017-Mar-17 13:33N 51°59' E 003°43'9 8.9
2017-Mar-17 12:33N 51°56' E 003°29'45 8.9
2017-Mar-17 07:32N 51°36' E 002°24'  

Dump ship's entire track history